Time;durP1;ratioP1;P1;durP2;ratioP2;P2;SDS_P1;SDS_P2;PMS_P1;PMS_P2;Temp;Humidity;BMP_temperature;BMP_pressure;BME280_temperature;BME280_humidity;BME280_pressure;Samples;Min_cycle;Max_cycle;Signal;HPM_P1;HPM_P2
2021/06/03 00:27:54;;;;;;;7.32;2.47;;;;;;;;;;5170357;27;20101;-67
2021/06/03 00:30:21;;;;;;;4.93;2.70;;;;;;;;;;5161470;27;20082;-68
2021/06/03 00:32:47;;;;;;;5.72;2.20;;;;;;;;;;5181222;27;20133;-70
2021/06/03 00:35:13;;;;;;;5.03;2.50;;;;;;;;;;5181099;27;20090;-69
2021/06/03 00:37:39;;;;;;;3.60;2.17;;;;;;;;;;5181175;27;20090;-69
2021/06/03 00:40:09;;;;;;;3.70;2.30;;;;;;;;;;5181470;27;20085;-69
2021/06/03 00:42:35;;;;;;;5.68;2.00;;;;;;;;;;5181305;27;20078;-68
2021/06/03 00:45:02;;;;;;;4.35;2.17;;;;;;;;;;5162286;27;20156;-69
2021/06/03 00:47:28;;;;;;;3.62;2.30;;;;;;;;;;5181263;27;20162;-69
2021/06/03 00:49:53;;;;;;;7.10;3.05;;;;;;;;;;5181126;27;20101;-68
2021/06/03 00:52:19;;;;;;;5.72;2.45;;;;;;;;;;5181032;27;20081;-68
2021/06/03 00:54:45;;;;;;;4.95;2.20;;;;;;;;;;5162021;27;20110;-67
2021/06/03 00:57:11;;;;;;;4.95;2.53;;;;;;;;;;5181020;27;20085;-67
2021/06/03 00:59:37;;;;;;;6.55;2.75;;;;;;;;;;5180977;27;20184;-68
2021/06/03 01:02:03;;;;;;;7.93;2.35;;;;;;;;;;5180867;27;20074;-68
2021/06/03 01:04:29;;;;;;;9.13;2.87;;;;;;;;;;5180879;27;20113;-68
2021/06/03 01:06:55;;;;;;;5.18;2.50;;;;;;;;;;5180765;27;20070;-69
2021/06/03 01:09:28;;;;;;;7.40;2.75;;;;;;;;;;5181103;27;20188;-69
2021/06/03 01:12:01;;;;;;;6.60;3.00;;;;;;;;;;5180752;27;20140;-69
2021/06/03 01:14:27;;;;;;;4.68;2.40;;;;;;;;;;5180763;27;20082;-68
2021/06/03 01:16:55;;;;;;;6.37;3.12;;;;;;;;;;5180855;27;20179;-69
2021/06/03 01:19:47;;;;;;;2.87;2.25;;;;;;;;;;5162070;27;20595;-68
2021/06/03 01:22:37;;;;;;;7.97;2.47;;;;;;;;;;5175920;27;20078;-69
2021/06/03 01:25:03;;;;;;;4.60;2.20;;;;;;;;;;5180680;27;20101;-69
2021/06/03 01:27:31;;;;;;;5.00;2.28;;;;;;;;;;5180476;27;20097;-69
2021/06/03 01:29:58;;;;;;;5.62;2.22;;;;;;;;;;5162113;27;20134;-69
2021/06/03 01:32:25;;;;;;;9.13;2.12;;;;;;;;;;5161947;27;20150;-67
2021/06/03 01:34:52;;;;;;;2.90;2.00;;;;;;;;;;5161641;27;20090;-67
2021/06/03 01:37:18;;;;;;;4.43;2.35;;;;;;;;;;5180618;27;20508;-67
2021/06/03 01:39:45;;;;;;;8.02;2.45;;;;;;;;;;5180892;27;20414;-67
2021/06/03 01:42:11;;;;;;;7.70;1.98;;;;;;;;;;5180657;27;20073;-68
2021/06/03 01:44:37;;;;;;;4.90;2.40;;;;;;;;;;5161633;27;20110;-70
2021/06/03 01:47:04;;;;;;;11.05;3.05;;;;;;;;;;5161448;27;20130;-70
2021/06/03 01:49:30;;;;;;;5.00;2.65;;;;;;;;;;5144643;27;20494;-70
2021/06/03 01:52:00;;;;;;;6.53;2.45;;;;;;;;;;5161460;27;20078;-69
2021/06/03 01:54:27;;;;;;;6.37;2.22;;;;;;;;;;5162354;27;20073;-69
2021/06/03 01:56:53;;;;;;;8.68;2.50;;;;;;;;;;5175484;27;20066;-69
2021/06/03 01:59:18;;;;;;;5.78;2.78;;;;;;;;;;5161449;27;20098;-69
2021/06/03 02:01:44;;;;;;;6.97;2.30;;;;;;;;;;5180658;27;20073;-69
2021/06/03 02:04:13;;;;;;;6.72;2.67;;;;;;;;;;5161458;27;20461;-68
2021/06/03 02:06:42;;;;;;;6.37;2.25;;;;;;;;;;5180303;27;20085;-68
2021/06/03 02:09:08;;;;;;;3.65;2.33;;;;;;;;;;5180484;27;20081;-68
2021/06/03 02:11:39;;;;;;;2.97;2.50;;;;;;;;;;5161686;27;20089;-68
2021/06/03 02:14:05;;;;;;;3.40;2.55;;;;;;;;;;5161707;27;20193;-69
2021/06/03 02:16:35;;;;;;;4.65;2.20;;;;;;;;;;5161339;27;20086;-69
2021/06/03 02:19:12;;;;;;;7.75;2.80;;;;;;;;;;5144567;27;20264;-69
2021/06/03 02:21:38;;;;;;;5.65;3.20;;;;;;;;;;5161497;27;20149;-68
2021/06/03 02:24:05;;;;;;;4.50;2.40;;;;;;;;;;5161550;27;20212;-68
2021/06/03 02:26:37;;;;;;;7.22;2.78;;;;;;;;;;5179926;27;20607;-68
2021/06/03 02:29:03;;;;;;;6.18;2.47;;;;;;;;;;5180387;27;20085;-67
2021/06/03 02:31:31;;;;;;;2.90;2.45;;;;;;;;;;5180051;27;20078;-66
2021/06/03 02:33:57;;;;;;;5.03;2.70;;;;;;;;;;5161234;27;20082;-68
2021/06/03 02:36:22;;;;;;;3.62;2.55;;;;;;;;;;5180009;27;20113;-68
2021/06/03 02:38:48;;;;;;;4.62;2.42;;;;;;;;;;5180583;27;20485;-68
2021/06/03 02:41:14;;;;;;;6.80;2.60;;;;;;;;;;5180158;27;20101;-68
2021/06/03 02:43:45;;;;;;;7.85;2.80;;;;;;;;;;5161248;27;20201;-68
2021/06/03 02:46:11;;;;;;;9.10;2.67;;;;;;;;;;5180111;27;20073;-67
2021/06/03 02:48:37;;;;;;;5.22;2.65;;;;;;;;;;5180186;27;20066;-68
2021/06/03 02:51:03;;;;;;;4.65;2.60;;;;;;;;;;5180011;27;20484;-67
2021/06/03 02:53:29;;;;;;;3.80;2.33;;;;;;;;;;5160864;27;20167;-68
2021/06/03 02:55:56;;;;;;;5.57;2.62;;;;;;;;;;5178245;27;20109;-68
2021/06/03 02:58:22;;;;;;;9.90;2.92;;;;;;;;;;5180366;27;20154;-68
2021/06/03 03:00:48;;;;;;;5.18;2.78;;;;;;;;;;5180194;27;20069;-68
2021/06/03 03:03:14;;;;;;;7.32;2.97;;;;;;;;;;5178659;27;20077;-67
2021/06/03 03:05:40;;;;;;;5.70;3.10;;;;;;;;;;5180242;27;20160;-69
2021/06/03 03:08:06;;;;;;;5.50;2.92;;;;;;;;;;5179959;27;20069;-68
2021/06/03 03:10:35;;;;;;;5.20;2.47;;;;;;;;;;5180268;27;20100;-68
2021/06/03 03:13:01;;;;;;;5.95;2.50;;;;;;;;;;5180214;27;20406;-67
2021/06/03 03:15:26;;;;;;;12.00;2.65;;;;;;;;;;5178217;27;20086;-67
2021/06/03 03:17:53;;;;;;;5.45;2.50;;;;;;;;;;5178086;27;20568;-67
2021/06/03 03:20:19;;;;;;;3.80;2.35;;;;;;;;;;5179011;27;20430;-68
2021/06/03 03:22:45;;;;;;;6.35;2.60;;;;;;;;;;5179043;27;20115;-68
2021/06/03 03:25:13;;;;;;;3.80;2.67;;;;;;;;;;5159847;27;20512;-68
2021/06/03 03:27:39;;;;;;;5.45;2.97;;;;;;;;;;5160041;27;20562;-68
2021/06/03 03:30:06;;;;;;;5.68;2.33;;;;;;;;;;5179833;27;20107;-68
2021/06/03 03:32:32;;;;;;;2.85;2.50;;;;;;;;;;5180274;27;20085;-68
2021/06/03 03:35:01;;;;;;;10.18;3.40;;;;;;;;;;5143964;27;20415;-67
2021/06/03 03:37:28;;;;;;;5.30;2.90;;;;;;;;;;5179843;27;20070;-68
2021/06/03 03:39:55;;;;;;;8.38;2.83;;;;;;;;;;5180250;27;20069;-67
2021/06/03 03:42:21;;;;;;;6.43;3.00;;;;;;;;;;5143843;27;20097;-68
2021/06/03 03:44:47;;;;;;;9.15;2.78;;;;;;;;;;5179926;27;20195;-67
2021/06/03 03:47:13;;;;;;;6.55;2.97;;;;;;;;;;5179707;27;20089;-67
2021/06/03 03:49:39;;;;;;;7.47;2.87;;;;;;;;;;5179944;27;20458;-67
2021/06/03 03:52:05;;;;;;;8.13;2.50;;;;;;;;;;5180138;27;20073;-67
2021/06/03 03:54:31;;;;;;;5.18;2.75;;;;;;;;;;5180019;27;20070;-67
2021/06/03 03:56:57;;;;;;;4.80;2.50;;;;;;;;;;5179743;27;20488;-67
2021/06/03 03:59:23;;;;;;;3.53;2.67;;;;;;;;;;5180164;27;20094;-67
2021/06/03 04:01:53;;;;;;;7.70;2.60;;;;;;;;;;5180021;27;20153;-67
2021/06/03 04:04:20;;;;;;;5.10;3.00;;;;;;;;;;5179787;27;20090;-68
2021/06/03 04:06:46;;;;;;;5.68;3.00;;;;;;;;;;5162182;27;20073;-68
2021/06/03 04:09:12;;;;;;;3.15;2.67;;;;;;;;;;5181625;27;20482;-67
2021/06/03 04:11:37;;;;;;;7.10;2.70;;;;;;;;;;5181136;27;20098;-67
2021/06/03 04:14:03;;;;;;;3.50;2.55;;;;;;;;;;5181251;27;20184;-67
2021/06/03 04:16:29;;;;;;;7.37;2.72;;;;;;;;;;5180971;27;20097;-67
2021/06/03 04:18:55;;;;;;;11.32;2.85;;;;;;;;;;5181226;27;20117;-68
2021/06/03 04:21:21;;;;;;;3.92;2.70;;;;;;;;;;5181120;27;20073;-68
2021/06/03 04:23:47;;;;;;;5.18;2.58;;;;;;;;;;5181195;27;20514;-67
2021/06/03 04:26:13;;;;;;;5.05;2.42;;;;;;;;;;5180793;27;20078;-68
2021/06/03 04:28:39;;;;;;;4.20;2.47;;;;;;;;;;5181054;27;20070;-68
2021/06/03 04:31:05;;;;;;;6.15;2.50;;;;;;;;;;5180988;27;20156;-68
2021/06/03 04:33:31;;;;;;;6.25;2.67;;;;;;;;;;5181135;27;20105;-68
2021/06/03 04:35:57;;;;;;;9.43;2.92;;;;;;;;;;5180981;27;20093;-68
2021/06/03 04:38:23;;;;;;;9.52;2.50;;;;;;;;;;5181153;27;20097;-68
2021/06/03 04:40:49;;;;;;;2.83;2.60;;;;;;;;;;5181079;27;20541;-68
2021/06/03 04:43:14;;;;;;;6.93;2.45;;;;;;;;;;5181167;27;20156;-68
2021/06/03 04:45:40;;;;;;;7.68;2.42;;;;;;;;;;5180926;27;20093;-68
2021/06/03 04:48:07;;;;;;;3.35;2.20;;;;;;;;;;5180855;27;20402;-68
2021/06/03 04:50:34;;;;;;;12.15;4.75;;;;;;;;;;5180991;27;20483;-68
2021/06/03 04:53:00;;;;;;;8.30;2.72;;;;;;;;;;5180638;27;20085;-68
2021/06/03 04:55:26;;;;;;;3.45;2.20;;;;;;;;;;5180710;27;20160;-68
2021/06/03 04:57:52;;;;;;;7.22;2.37;;;;;;;;;;5180817;27;20260;-68
2021/06/03 05:00:21;;;;;;;8.32;2.55;;;;;;;;;;5161529;27;20092;-68
2021/06/03 05:02:47;;;;;;;3.83;2.08;;;;;;;;;;5180547;27;20159;-68
2021/06/03 05:05:16;;;;;;;6.70;2.17;;;;;;;;;;5180658;27;20114;-67
2021/06/03 05:07:43;;;;;;;7.30;2.55;;;;;;;;;;5180766;27;20089;-67
2021/06/03 05:10:09;;;;;;;9.38;2.40;;;;;;;;;;5180599;27;20501;-68
2021/06/03 05:12:35;;;;;;;6.50;2.30;;;;;;;;;;5180300;27;20421;-68
2021/06/03 05:15:02;;;;;;;10.38;2.53;;;;;;;;;;5161341;27;20184;-69
2021/06/03 05:17:28;;;;;;;6.85;2.22;;;;;;;;;;5180148;27;20189;-69
2021/06/03 05:19:53;;;;;;;8.00;2.20;;;;;;;;;;5180860;27;20501;-70
2021/06/03 05:22:19;;;;;;;4.25;1.77;;;;;;;;;;5161523;27;20173;-69
2021/06/03 05:24:45;;;;;;;8.02;2.10;;;;;;;;;;5180608;27;20100;-69
2021/06/03 05:27:11;;;;;;;5.90;2.15;;;;;;;;;;5180427;27;20086;-68
2021/06/03 05:29:37;;;;;;;14.45;3.10;;;;;;;;;;5180887;27;20098;-69
2021/06/03 05:32:03;;;;;;;15.25;2.72;;;;;;;;;;5180753;27;20062;-70
2021/06/03 05:34:29;;;;;;;14.48;2.65;;;;;;;;;;5180604;27;20405;-70
2021/06/03 05:36:56;;;;;;;18.60;3.12;;;;;;;;;;5180460;27;20122;-69
2021/06/03 05:39:22;;;;;;;15.32;2.47;;;;;;;;;;5180855;27;20542;-73
2021/06/03 05:41:48;;;;;;;3.85;2.10;;;;;;;;;;5180439;27;20072;-71
2021/06/03 05:44:14;;;;;;;9.63;2.10;;;;;;;;;;5161828;27;20094;-70
2021/06/03 05:46:40;;;;;;;3.47;2.00;;;;;;;;;;5180818;27;20186;-69
2021/06/03 05:49:07;;;;;;;20.73;2.75;;;;;;;;;;5180483;27;20171;-69
2021/06/03 05:51:33;;;;;;;15.57;3.15;;;;;;;;;;5180232;27;20081;-70
2021/06/03 05:53:59;;;;;;;4.78;2.20;;;;;;;;;;5180405;27;20560;-72
2021/06/03 05:56:25;;;;;;;18.45;3.40;;;;;;;;;;5180248;27;20187;-69
2021/06/03 05:58:54;;;;;;;20.90;2.80;;;;;;;;;;5180298;27;20105;-69
2021/06/03 06:01:21;;;;;;;10.63;2.78;;;;;;;;;;5161181;27;20482;-69
2021/06/03 06:06:23;;;;;;;30.00;3.70;;;;;;;;;;5161202;27;20089;-69
2021/06/03 06:08:53;;;;;;;20.70;3.15;;;;;;;;;;5163177;27;20077;-69
2021/06/03 06:11:19;;;;;;;14.40;2.17;;;;;;;;;;5161363;27;20098;-69
2021/06/03 06:13:46;;;;;;;22.02;2.60;;;;;;;;;;5180310;27;20077;-69
2021/06/03 06:16:12;;;;;;;9.15;3.42;;;;;;;;;;5180108;27;20073;-69
2021/06/03 06:18:38;;;;;;;5.93;2.05;;;;;;;;;;5180501;27;20090;-69
2021/06/03 06:21:04;;;;;;;5.28;2.37;;;;;;;;;;5180094;27;20162;-70
2021/06/03 06:23:33;;;;;;;6.35;2.35;;;;;;;;;;5180076;27;20190;-70
2021/06/03 06:25:59;;;;;;;6.12;2.30;;;;;;;;;;5161097;27;20093;-70
2021/06/03 06:28:25;;;;;;;4.68;2.30;;;;;;;;;;5179946;27;20567;-74
2021/06/03 06:30:52;;;;;;;12.15;2.60;;;;;;;;;;5161061;27;20109;-71
2021/06/03 06:33:18;;;;;;;6.80;2.95;;;;;;;;;;5179992;27;20101;-70
2021/06/03 06:35:47;;;;;;;5.78;2.25;;;;;;;;;;5160918;27;20197;-70
2021/06/03 06:38:13;;;;;;;10.10;2.65;;;;;;;;;;5180432;27;20383;-70
2021/06/03 06:40:39;;;;;;;8.27;2.40;;;;;;;;;;5180215;27;20161;-68
2021/06/03 06:43:05;;;;;;;12.63;3.12;;;;;;;;;;5180009;27;20417;-68
2021/06/03 06:45:32;;;;;;;4.90;2.22;;;;;;;;;;5180181;27;20187;-69
2021/06/03 06:47:58;;;;;;;13.73;2.87;;;;;;;;;;5180297;27;20406;-70
2021/06/03 06:50:24;;;;;;;7.35;2.40;;;;;;;;;;5180256;27;20066;-69
2021/06/03 06:52:52;;;;;;;12.93;2.72;;;;;;;;;;5180235;27;20529;-69
2021/06/03 06:55:18;;;;;;;7.05;2.10;;;;;;;;;;5179944;27;20495;-69
2021/06/03 06:57:44;;;;;;;3.70;1.85;;;;;;;;;;5180135;27;20067;-70
2021/06/03 07:00:10;;;;;;;3.47;1.90;;;;;;;;;;5180323;27;20092;-68
2021/06/03 07:02:37;;;;;;;8.50;2.05;;;;;;;;;;5180330;27;20397;-67
2021/06/03 07:05:04;;;;;;;6.07;2.17;;;;;;;;;;5179954;27;20425;-67
2021/06/03 07:07:30;;;;;;;9.45;1.95;;;;;;;;;;5179776;27;20552;-67
2021/06/03 07:09:56;;;;;;;5.30;1.92;;;;;;;;;;5180004;27;20098;-67
2021/06/03 07:12:21;;;;;;;7.65;2.08;;;;;;;;;;5179848;27;20489;-67
2021/06/03 07:14:47;;;;;;;7.50;2.12;;;;;;;;;;5179906;27;20484;-67
2021/06/03 07:17:13;;;;;;;7.40;2.00;;;;;;;;;;5179712;27;20078;-66
2021/06/03 07:19:39;;;;;;;7.20;1.87;;;;;;;;;;5179947;27;20195;-67
2021/06/03 07:22:07;;;;;;;7.35;2.10;;;;;;;;;;5180003;27;20109;-68
2021/06/03 07:24:36;;;;;;;1.92;1.73;;;;;;;;;;5180011;27;20085;-66
2021/06/03 07:27:03;;;;;;;3.62;2.12;;;;;;;;;;5180079;27;20074;-67
2021/06/03 07:29:29;;;;;;;7.97;1.90;;;;;;;;;;5180112;27;20078;-68
2021/06/03 07:31:55;;;;;;;7.05;1.80;;;;;;;;;;5179755;27;20239;-66
2021/06/03 07:34:21;;;;;;;9.05;2.20;;;;;;;;;;5180161;27;20191;-66
2021/06/03 07:36:47;;;;;;;1.80;1.60;;;;;;;;;;5179665;27;20165;-67
2021/06/03 07:39:13;;;;;;;6.40;2.20;;;;;;;;;;5179997;27;20508;-67
2021/06/03 07:41:38;;;;;;;4.85;1.80;;;;;;;;;;5179584;27;20144;-68
2021/06/03 07:44:04;;;;;;;5.35;1.83;;;;;;;;;;5179781;27;20421;-67
2021/06/03 07:46:31;;;;;;;5.32;2.30;;;;;;;;;;5179849;27;20098;-68
2021/06/03 07:48:57;;;;;;;2.92;1.80;;;;;;;;;;5180130;27;20077;-69
2021/06/03 07:51:23;;;;;;;5.20;2.00;;;;;;;;;;5179961;27;20070;-69
2021/06/03 07:53:49;;;;;;;2.17;1.90;;;;;;;;;;5180245;27;20471;-68
2021/06/03 07:56:15;;;;;;;4.37;2.08;;;;;;;;;;5179957;27;20086;-67
2021/06/03 07:58:41;;;;;;;4.10;2.10;;;;;;;;;;5180173;27;20188;-67
2021/06/03 08:01:07;;;;;;;9.27;2.30;;;;;;;;;;5179941;27;20177;-67
2021/06/03 08:03:33;;;;;;;4.82;1.92;;;;;;;;;;5179810;27;20109;-67
2021/06/03 08:05:59;;;;;;;6.00;2.08;;;;;;;;;;5179537;27;20572;-67
2021/06/03 08:08:25;;;;;;;6.05;2.28;;;;;;;;;;5179608;27;20106;-67
2021/06/03 08:10:51;;;;;;;8.50;1.92;;;;;;;;;;5179606;27;20106;-68
2021/06/03 08:13:17;;;;;;;6.43;2.47;;;;;;;;;;5179465;27;20157;-66
2021/06/03 08:15:43;;;;;;;6.75;2.20;;;;;;;;;;5179372;27;20098;-66
2021/06/03 08:18:10;;;;;;;2.92;1.70;;;;;;;;;;5160725;27;20066;-67
2021/06/03 08:20:40;;;;;;;2.37;1.85;;;;;;;;;;5179655;27;20082;-67
2021/06/03 08:23:07;;;;;;;3.80;1.55;;;;;;;;;;5160624;27;20515;-67
2021/06/03 08:25:33;;;;;;;3.10;1.55;;;;;;;;;;5179701;27;20057;-67
2021/06/03 08:27:59;;;;;;;2.50;1.62;;;;;;;;;;5179298;27;20206;-67
2021/06/03 08:30:25;;;;;;;6.22;2.28;;;;;;;;;;5179936;27;20086;-68
2021/06/03 08:32:51;;;;;;;2.53;2.20;;;;;;;;;;5179319;27;20086;-66
2021/06/03 08:35:19;;;;;;;1.08;1.08;;;;;;;;;;5179335;27;20096;-68
2021/06/03 08:37:46;;;;;;;1.52;1.37;;;;;;;;;;5179522;27;20383;-66
2021/06/03 08:40:14;;;;;;;2.70;1.80;;;;;;;;;;5179711;27;20066;-67
2021/06/03 08:42:40;;;;;;;4.05;1.98;;;;;;;;;;5179550;27;20082;-69
2021/06/03 08:45:06;;;;;;;3.22;2.17;;;;;;;;;;5179370;27;20092;-68
2021/06/03 08:47:33;;;;;;;5.60;2.10;;;;;;;;;;5179209;27;20075;-69
2021/06/03 08:50:03;;;;;;;2.83;2.10;;;;;;;;;;5160376;27;20098;-68
2021/06/03 08:52:29;;;;;;;8.00;2.35;;;;;;;;;;5180406;27;20058;-69
2021/06/03 08:54:56;;;;;;;5.72;1.90;;;;;;;;;;5180640;27;20187;-67
2021/06/03 08:57:22;;;;;;;2.85;2.12;;;;;;;;;;5162108;27;20253;-67
2021/06/03 08:59:49;;;;;;;6.35;2.80;;;;;;;;;;5180693;27;20593;-67
2021/06/03 09:02:15;;;;;;;3.28;2.10;;;;;;;;;;5181026;27;20082;-67
2021/06/03 09:04:41;;;;;;;2.72;1.90;;;;;;;;;;5180736;27;20081;-69
2021/06/03 09:07:27;;;;;;;6.90;2.00;;;;;;;;;;5180988;27;20093;-69
2021/06/03 09:09:53;;;;;;;5.55;1.90;;;;;;;;;;5180966;27;20094;-68
2021/06/03 09:12:19;;;;;;;6.40;2.17;;;;;;;;;;5180686;27;20251;-68
2021/06/03 09:14:45;;;;;;;3.75;1.73;;;;;;;;;;5180767;27;20173;-68
2021/06/03 09:17:12;;;;;;;5.15;2.12;;;;;;;;;;5180835;27;20085;-68
2021/06/03 09:19:53;;;;;;;3.42;1.98;;;;;;;;;;5181157;27;20080;-68
2021/06/03 09:22:39;;;;;;;6.37;2.15;;;;;;;;;;5180408;27;20093;-68
2021/06/03 09:25:30;;;;;;;6.15;2.00;;;;;;;;;;5180996;27;20406;-68
2021/06/03 09:28:00;;;;;;;11.40;2.37;;;;;;;;;;5180846;27;20110;-68
2021/06/03 09:30:28;;;;;;;8.07;2.10;;;;;;;;;;5145236;27;20093;-68
2021/06/03 09:32:54;;;;;;;7.25;1.85;;;;;;;;;;5180624;27;20102;-68
2021/06/03 09:35:20;;;;;;;5.05;2.10;;;;;;;;;;5180522;27;20567;-69
2021/06/03 09:37:46;;;;;;;10.45;2.00;;;;;;;;;;5161616;27;20078;-68
2021/06/03 09:40:22;;;;;;;8.75;1.67;;;;;;;;;;5161434;27;20191;-68
2021/06/03 09:43:07;;;;;;;5.32;1.92;;;;;;;;;;5180383;27;20167;-68
2021/06/03 09:45:58;;;;;;;6.53;2.10;;;;;;;;;;5180870;27;20061;-69
2021/06/03 09:48:38;;;;;;;6.35;2.20;;;;;;;;;;5180343;27;20233;-68
2021/06/03 09:51:27;;;;;;;8.38;2.25;;;;;;;;;;5180253;27;20094;-68
2021/06/03 09:54:09;;;;;;;9.38;2.83;;;;;;;;;;5180400;27;20081;-68
2021/06/03 09:56:42;;;;;;;7.82;2.33;;;;;;;;;;5180243;27;20528;-69
2021/06/03 09:59:15;;;;;;;6.93;2.30;;;;;;;;;;5180389;27;20516;-69
2021/06/03 10:01:51;;;;;;;3.35;2.00;;;;;;;;;;5162333;27;20084;-68
2021/06/03 10:04:26;;;;;;;10.60;3.05;;;;;;;;;;5180285;27;20175;-68
2021/06/03 10:06:56;;;;;;;4.22;1.98;;;;;;;;;;5161306;27;20137;-68
2021/06/03 10:09:38;;;;;;;9.73;2.28;;;;;;;;;;5161757;27;20125;-69
2021/06/03 10:12:05;;;;;;;2.53;2.05;;;;;;;;;;5180315;27;20069;-69
2021/06/03 10:14:32;;;;;;;10.88;2.67;;;;;;;;;;5180557;27;20091;-68
2021/06/03 10:16:58;;;;;;;7.18;2.00;;;;;;;;;;5180072;27;20492;-68
2021/06/03 10:19:27;;;;;;;4.95;3.40;;;;;;;;;;5161215;27;20521;-68
2021/06/03 10:22:16;;;;;;;4.65;2.03;;;;;;;;;;5180047;27;20190;-68
2021/06/03 10:24:57;;;;;;;3.05;1.80;;;;;;;;;;5180168;27;20062;-68
2021/06/03 10:27:25;;;;;;;5.45;2.03;;;;;;;;;;5180057;27;20074;-68
2021/06/03 10:29:51;;;;;;;2.67;1.87;;;;;;;;;;5180100;27;20477;-69
2021/06/03 10:32:18;;;;;;;8.23;2.15;;;;;;;;;;5180086;27;20096;-69
2021/06/03 10:34:44;;;;;;;8.90;2.22;;;;;;;;;;5180097;27;20199;-69
2021/06/03 10:37:13;;;;;;;8.05;2.37;;;;;;;;;;5180270;27;20094;-68
2021/06/03 10:39:40;;;;;;;7.28;2.08;;;;;;;;;;5180153;27;20080;-68
2021/06/03 10:42:07;;;;;;;6.35;2.03;;;;;;;;;;5180020;27;20105;-68
2021/06/03 10:44:33;;;;;;;4.37;2.00;;;;;;;;;;5180243;27;20086;-69
2021/06/03 10:46:59;;;;;;;8.05;2.65;;;;;;;;;;5160976;27;20100;-70
2021/06/03 10:49:27;;;;;;;8.15;2.10;;;;;;;;;;5161198;27;20070;-69
2021/06/03 10:51:52;;;;;;;3.95;1.92;;;;;;;;;;5160991;27;20062;-70
2021/06/03 10:54:47;;;;;;;4.60;2.15;;;;;;;;;;5160592;27;20116;-70
2021/06/03 10:57:15;;;;;;;4.25;1.75;;;;;;;;;;5179837;27;20088;-69
2021/06/03 10:59:41;;;;;;;14.60;1.90;;;;;;;;;;5179812;27;20062;-68
2021/06/03 11:02:08;;;;;;;12.07;2.40;;;;;;;;;;5179841;27;20149;-68
2021/06/03 11:04:34;;;;;;;5.90;2.10;;;;;;;;;;5179969;27;20097;-69
2021/06/03 11:07:00;;;;;;;3.78;1.73;;;;;;;;;;5160614;27;20175;-70
2021/06/03 11:09:31;;;;;;;2.45;1.42;;;;;;;;;;5179823;27;20581;-70
2021/06/03 11:12:10;;;;;;;4.85;1.90;;;;;;;;;;5179940;27;20082;-70
2021/06/03 11:15:14;;;;;;;3.60;1.50;;;;;;;;;;5179656;27;20081;-68
2021/06/03 11:17:55;;;;;;;1.90;1.58;;;;;;;;;;5073863;28;20080;-68
2021/06/03 11:20:38;;;;;;;4.87;2.10;;;;;;;;;;5170571;27;20482;-69
2021/06/03 11:23:35;;;;;;;4.65;2.30;;;;;;;;;;5160747;27;20156;-68
2021/06/03 11:26:01;;;;;;;6.10;2.42;;;;;;;;;;5179643;27;20184;-68
2021/06/03 11:28:27;;;;;;;14.13;4.47;;;;;;;;;;5179407;27;20203;-68
2021/06/03 11:30:53;;;;;;;2.87;2.40;;;;;;;;;;5179976;27;20511;-68
2021/06/03 11:33:19;;;;;;;9.00;5.18;;;;;;;;;;5179545;27;20445;-68
2021/06/03 11:35:45;;;;;;;13.23;5.47;;;;;;;;;;5179540;27;20062;-69
2021/06/03 11:38:11;;;;;;;13.75;6.47;;;;;;;;;;5179550;27;20566;-69
2021/06/03 11:40:42;;;;;;;11.60;6.25;;;;;;;;;;5179637;27;20093;-68
2021/06/03 11:43:10;;;;;;;11.25;4.28;;;;;;;;;;5179540;27;20235;-68
2021/06/03 11:45:44;;;;;;;12.07;4.32;;;;;;;;;;5179716;27;20180;-67
2021/06/03 11:48:34;;;;;;;8.90;3.55;;;;;;;;;;5179589;27;20077;-68
2021/06/03 11:51:04;;;;;;;7.70;4.95;;;;;;;;;;5166840;27;20102;-67
2021/06/03 11:53:31;;;;;;;7.07;3.62;;;;;;;;;;5179920;27;20406;-67
2021/06/03 11:56:08;;;;;;;9.90;2.97;;;;;;;;;;5179554;27;20086;-66
2021/06/03 11:58:41;;;;;;;8.48;2.85;;;;;;;;;;5179845;27;20536;-68
2021/06/03 12:01:31;;;;;;;8.38;2.78;;;;;;;;;;5179549;27;20059;-67
2021/06/03 12:04:10;;;;;;;11.38;2.67;;;;;;;;;;5179798;27;20072;-68
2021/06/03 12:06:39;;;;;;;10.63;2.15;;;;;;;;;;5179502;27;20157;-69
2021/06/03 12:09:35;;;;;;;3.37;1.80;;;;;;;;;;5179563;27;20445;-68
2021/06/03 12:12:05;;;;;;;7.87;2.08;;;;;;;;;;5180002;27;20061;-68
2021/06/03 12:14:32;;;;;;;12.25;2.45;;;;;;;;;;5179564;27;20410;-68
2021/06/03 12:17:04;;;;;;;4.43;1.80;;;;;;;;;;5160062;27;20092;-68
2021/06/03 12:19:37;;;;;;;2.50;2.28;;;;;;;;;;5179887;27;20059;-67
2021/06/03 12:22:08;;;;;;;4.78;1.87;;;;;;;;;;5179773;27;20074;-69
2021/06/03 12:24:42;;;;;;;3.37;1.50;;;;;;;;;;5179684;27;20066;-66
2021/06/03 12:27:34;;;;;;;2.80;1.87;;;;;;;;;;5180051;27;20070;-67
2021/06/03 12:30:12;;;;;;;4.20;1.60;;;;;;;;;;5180868;27;20398;-68
2021/06/03 12:32:38;;;;;;;9.88;2.37;;;;;;;;;;5181152;27;20492;-68
2021/06/03 12:35:05;;;;;;;6.87;2.83;;;;;;;;;;5179215;27;20105;-68
2021/06/03 12:37:32;;;;;;;2.60;1.80;;;;;;;;;;5180728;27;20488;-70
2021/06/03 12:39:59;;;;;;;8.57;2.60;;;;;;;;;;5180730;27;20133;-66
2021/06/03 12:42:27;;;;;;;10.77;2.67;;;;;;;;;;5180575;27;20055;-67
2021/06/03 12:44:58;;;;;;;4.62;2.05;;;;;;;;;;5180777;27;20575;-67
2021/06/03 12:47:25;;;;;;;1.60;1.50;;;;;;;;;;5180854;27;20074;-66
2021/06/03 12:49:51;;;;;;;9.95;2.25;;;;;;;;;;5180702;27;20168;-67
2021/06/03 12:52:24;;;;;;;7.28;2.08;;;;;;;;;;5181082;27;20085;-67
2021/06/03 12:54:56;;;;;;;5.45;2.10;;;;;;;;;;5128502;27;20081;-65
2021/06/03 12:57:24;;;;;;;14.57;2.85;;;;;;;;;;5161580;27;20153;-64
2021/06/03 12:59:52;;;;;;;12.63;2.53;;;;;;;;;;5180777;27;20089;-64
2021/06/03 13:02:19;;;;;;;5.25;2.10;;;;;;;;;;5180759;27;20069;-65
2021/06/03 13:04:47;;;;;;;4.10;2.50;;;;;;;;;;5181043;27;20546;-64
2021/06/03 13:07:15;;;;;;;13.48;2.72;;;;;;;;;;5180655;27;20085;-64
2021/06/03 13:09:41;;;;;;;4.12;1.48;;;;;;;;;;5180680;27;20082;-65
2021/06/03 13:12:09;;;;;;;9.82;2.50;;;;;;;;;;5180544;27;20094;-64
2021/06/03 13:14:38;;;;;;;19.83;2.62;;;;;;;;;;5162011;27;20393;-64
2021/06/03 13:17:09;;;;;;;7.75;2.55;;;;;;;;;;5180648;27;20410;-69
2021/06/03 13:19:35;;;;;;;6.53;2.55;;;;;;;;;;5178703;27;20495;-68
2021/06/03 13:22:01;;;;;;;7.35;2.00;;;;;;;;;;5179656;27;20078;-67
2021/06/03 13:24:38;;;;;;;10.73;2.70;;;;;;;;;;5180466;27;20168;-69
2021/06/03 13:27:08;;;;;;;6.85;2.85;;;;;;;;;;5180412;27;20168;-70
2021/06/03 13:29:51;;;;;;;19.35;2.65;;;;;;;;;;5180682;27;20414;-68
2021/06/03 13:32:17;;;;;;;9.88;2.62;;;;;;;;;;5162823;27;20086;-67
2021/06/03 13:34:46;;;;;;;9.20;2.30;;;;;;;;;;5180564;27;20481;-68
2021/06/03 13:37:15;;;;;;;4.43;1.80;;;;;;;;;;5180403;27;20078;-67
2021/06/03 13:39:46;;;;;;;4.72;2.03;;;;;;;;;;5179780;27;20089;-68
2021/06/03 13:42:17;;;;;;;2.85;1.90;;;;;;;;;;5180426;27;20149;-68
2021/06/03 13:44:56;;;;;;;4.65;1.92;;;;;;;;;;5180645;27;20160;-69
2021/06/03 13:47:41;;;;;;;6.18;1.83;;;;;;;;;;5180336;27;20097;-68
2021/06/03 13:50:22;;;;;;;2.75;2.03;;;;;;;;;;5180597;27;20081;-68
2021/06/03 13:52:53;;;;;;;10.07;1.77;;;;;;;;;;5179726;27;20160;-71
2021/06/03 13:55:22;;;;;;;5.30;2.20;;;;;;;;;;5180061;27;20120;-71
2021/06/03 13:57:48;;;;;;;6.95;1.92;;;;;;;;;;5180215;27;20062;-73
2021/06/03 14:00:32;;;;;;;4.72;1.60;;;;;;;;;;5180164;27;20097;-73
2021/06/03 14:03:02;;;;;;;6.97;2.05;;;;;;;;;;5180373;27;20069;-72
2021/06/03 14:05:28;;;;;;;10.18;1.90;;;;;;;;;;5180661;27;20069;-73
2021/06/03 14:08:09;;;;;;;2.72;1.75;;;;;;;;;;5180387;27;20082;-69
2021/06/03 14:10:55;;;;;;;1.73;1.50;;;;;;;;;;5179433;27;20073;-69
2021/06/03 14:13:21;;;;;;;5.12;1.77;;;;;;;;;;5180176;27;20678;-71
2021/06/03 14:15:47;;;;;;;7.90;1.90;;;;;;;;;;5180315;27;20109;-69
2021/06/03 14:18:13;;;;;;;3.08;1.60;;;;;;;;;;5161312;27;20181;-70
2021/06/03 14:20:39;;;;;;;11.45;2.15;;;;;;;;;;5143958;27;20088;-70
2021/06/03 14:23:07;;;;;;;1.90;1.40;;;;;;;;;;5180239;27;20066;-72
2021/06/03 14:25:39;;;;;;;2.00;1.58;;;;;;;;;;5144332;27;20077;-70
2021/06/03 14:28:16;;;;;;;2.03;1.50;;;;;;;;;;5179729;27;20070;-71
2021/06/03 14:30:49;;;;;;;2.62;1.62;;;;;;;;;;5179945;27;20397;-67
2021/06/03 14:33:20;;;;;;;5.60;2.22;;;;;;;;;;5180376;27;20074;-69
2021/06/03 14:35:49;;;;;;;5.05;1.42;;;;;;;;;;5179956;27;20155;-69
2021/06/03 14:38:19;;;;;;;11.00;2.28;;;;;;;;;;5161175;27;20084;-69
2021/06/03 14:40:51;;;;;;;2.95;1.75;;;;;;;;;;5179859;27;20072;-69
2021/06/03 14:43:17;;;;;;;9.52;2.30;;;;;;;;;;5179807;27;20093;-69
2021/06/03 14:45:45;;;;;;;3.53;1.80;;;;;;;;;;5180028;27;20539;-68
2021/06/03 14:48:24;;;;;;;5.62;1.62;;;;;;;;;;5179976;27;20062;-70
2021/06/03 14:50:52;;;;;;;2.25;1.55;;;;;;;;;;5144288;27;20076;-70
2021/06/03 14:53:20;;;;;;;7.70;1.90;;;;;;;;;;5161397;27;20085;-68
2021/06/03 14:55:48;;;;;;;6.12;1.92;;;;;;;;;;5179843;27;20504;-68
2021/06/03 14:58:14;;;;;;;9.43;2.22;;;;;;;;;;5180242;27;20089;-70
2021/06/03 15:00:44;;;;;;;1.80;1.60;;;;;;;;;;5160998;27;20105;-70
2021/06/03 15:03:10;;;;;;;8.35;1.90;;;;;;;;;;5180369;27;20175;-70
2021/06/03 15:05:36;;;;;;;8.15;2.22;;;;;;;;;;5179979;27;20093;-72
2021/06/03 15:08:03;;;;;;;5.75;1.70;;;;;;;;;;5180346;27;20150;-69
2021/06/03 15:10:29;;;;;;;4.55;1.60;;;;;;;;;;5179873;27;20114;-69
2021/06/03 15:12:56;;;;;;;2.85;1.50;;;;;;;;;;5161208;27;20086;-69
2021/06/03 15:15:22;;;;;;;4.28;1.70;;;;;;;;;;5179756;27;20098;-69
2021/06/03 15:17:48;;;;;;;6.40;2.00;;;;;;;;;;5179473;27;20062;-71
2021/06/03 15:20:17;;;;;;;4.97;3.10;;;;;;;;;;5179846;27;20097;-71